Time;durP1;ratioP1;P1;durP2;ratioP2;P2;SDS_P1;SDS_P2;PMS_P1;PMS_P2;Temp;Humidity;BMP_temperature;BMP_pressure;BME280_temperature;BME280_humidity;BME280_pressure;Samples;Min_cycle;Max_cycle;Signal;HPM_P1;HPM_P2
2024/02/16 00:00:11;;;;;;;;;6.00;6.00;;;;;17.18;70.45;100226.88;6289168;22;45351;-83
2024/02/16 00:02:37;;;;;;;;;6.67;5.67;;;;;17.18;69.92;100226.00;6316895;22;45163;-82
2024/02/16 00:05:07;;;;;;;;;7.00;5.00;;;;;17.26;70.75;100223.16;6283125;22;44772;-82
2024/02/16 00:07:32;;;;;;;;;6.33;6.33;;;;;17.23;70.20;100217.84;6283603;22;45442;-82
2024/02/16 00:09:58;;;;;;;;;6.67;5.00;;;;;17.24;70.24;100222.31;6285115;22;45331;-83
2024/02/16 00:12:23;;;;;;;;;6.33;6.33;;;;;17.25;69.99;100224.97;6283131;22;46954;-83
2024/02/16 00:14:49;;;;;;;;;6.33;5.33;;;;;17.26;70.07;100225.84;6283823;22;44848;-82
2024/02/16 00:17:14;;;;;;;;;5.00;5.00;;;;;17.28;69.71;100221.31;6281382;22;45278;-82
2024/02/16 00:19:40;;;;;;;;;5.33;5.33;;;;;17.33;70.11;100228.38;6280601;22;45298;-83
2024/02/16 00:22:12;;;;;;;;;6.67;5.00;;;;;17.35;70.78;100223.84;6280734;22;45268;-82
2024/02/16 00:24:38;;;;;;;;;1.75;1.75;;;;;17.36;70.62;100212.16;6283519;22;45347;-82
2024/02/16 00:27:05;;;;;;;;;5.00;5.00;;;;;17.43;70.34;100228.16;6258275;22;44823;-82
2024/02/16 00:29:38;;;;;;;;;3.75;3.75;;;;;17.44;70.47;100219.19;6259652;22;44818;-83
2024/02/16 00:32:08;;;;;;;;;5.25;5.25;;;;;17.50;70.98;100224.41;6282148;22;46783;-83
2024/02/16 00:34:35;;;;;;;;;6.50;5.00;;;;;17.51;70.91;100226.19;6258155;22;45303;-82
2024/02/16 00:37:01;;;;;;;;;6.50;6.50;;;;;17.51;70.53;100220.81;6258567;22;44899;-82
2024/02/16 00:39:26;;;;;;;;;5.50;5.50;;;;;17.48;70.51;100231.63;6284943;22;45458;-83
2024/02/16 00:41:52;;;;;;;;;6.75;6.75;;;;;17.49;71.39;100228.91;6255927;22;47193;-82
2024/02/16 00:44:18;;;;;;;;;8.25;5.50;;;;;17.51;70.92;100232.47;6285376;22;45296;-83
2024/02/16 00:46:46;;;;;;;;;7.25;6.00;;;;;17.57;71.28;100243.06;6283261;22;45416;-83
2024/02/16 00:49:12;;;;;;;;;6.75;6.75;;;;;17.50;71.27;100235.19;6285054;22;44785;-83
2024/02/16 00:51:38;;;;;;;;;4.00;3.50;;;;;17.52;71.04;100244.09;6285580;22;45323;-82
2024/02/16 00:54:05;;;;;;;;;5.25;5.25;;;;;17.51;71.66;100236.94;6285513;22;44826;-82
2024/02/16 00:56:34;;;;;;;;;6.00;6.00;;;;;17.53;71.37;100245.84;6282129;22;45289;-82
2024/02/16 00:58:59;;;;;;;;;7.00;5.00;;;;;17.49;71.72;100242.38;6283893;22;45332;-83
2024/02/16 01:01:26;;;;;;;;;5.75;5.75;;;;;17.56;71.49;100248.47;6285420;22;45259;-83
2024/02/16 01:03:54;;;;;;;;;5.00;5.00;;;;;17.56;72.30;100240.41;6287544;22;44913;-82
2024/02/16 01:06:20;;;;;;;;;6.75;6.75;;;;;17.51;72.24;100243.22;6290799;22;44797;-83
2024/02/16 01:08:46;;;;;;;;;5.75;5.75;;;;;17.51;71.85;100228.88;6318097;22;45548;-82
2024/02/16 01:11:12;;;;;;;;;5.75;5.50;;;;;17.50;72.34;100232.50;6318660;22;45016;-83
2024/02/16 01:13:39;;;;;;;;;7.33;6.33;;;;;17.49;72.18;100236.06;6288175;22;45483;-83
2024/02/16 01:16:04;;;;;;;;;6.50;5.00;;;;;17.50;72.20;100237.88;6315248;22;45357;-82
2024/02/16 01:18:30;;;;;;;;;7.00;7.00;;;;;17.48;72.41;100243.28;6315178;22;44859;-82
2024/02/16 01:20:57;;;;;;;;;7.00;7.00;;;;;17.52;73.06;100233.34;6287229;22;47544;-83
2024/02/16 01:23:23;;;;;;;;;4.00;4.00;;;;;17.50;72.86;100236.06;6314644;22;45322;-83
2024/02/16 01:25:48;;;;;;;;;6.00;5.00;;;;;17.52;72.74;100238.72;6286159;22;45085;-83
2024/02/16 01:28:16;;;;;;;;;6.75;6.75;;;;;17.49;73.10;100242.38;6285898;22;44945;-83
2024/02/16 01:30:41;;;;;;;;;3.75;3.75;;;;;17.50;73.50;100236.06;6286422;22;47234;-83
2024/02/16 01:33:06;;;;;;;;;5.50;5.50;;;;;17.49;73.49;100233.38;6310182;22;45362;-84
2024/02/16 01:35:33;;;;;;;;;6.33;6.33;;;;;17.54;73.42;100236.88;6290161;22;45307;-84
2024/02/16 01:37:59;;;;;;;;;6.50;6.50;;;;;17.51;73.71;100234.25;6313916;22;45349;-83
2024/02/16 01:40:26;;;;;;;;;9.00;9.00;;;;;17.49;73.47;100225.31;6291394;22;47251;-84
2024/02/16 01:42:52;;;;;;;;;5.67;5.67;;;;;17.44;73.93;100225.44;6318802;22;44830;-84
2024/02/16 01:45:20;;;;;;;;;7.75;6.75;;;;;17.48;74.12;100243.28;6289852;22;45420;-84
2024/02/16 01:47:49;;;;;;;;;6.00;6.00;;;;;17.54;74.10;100236.88;6318045;22;44798;-83
2024/02/16 01:50:16;;;;;;;;;7.00;7.00;;;;;17.48;73.92;100245.97;6314886;22;45389;-84
2024/02/16 01:52:46;;;;;;;;;5.67;5.33;;;;;17.51;74.18;100243.22;6287149;22;45253;-84
2024/02/16 01:55:12;;;;;;;;;7.33;6.00;;;;;17.46;74.39;100238.84;6286173;22;44807;-83
2024/02/16 01:57:44;;;;;;;;;6.25;6.25;;;;;17.55;74.35;100231.47;6314858;22;45341;-84
2024/02/16 02:00:10;;;;;;;;;5.25;5.25;;;;;17.43;74.47;100238.91;6286736;22;47069;-85
2024/02/16 02:02:36;;;;;;;;;4.50;4.50;;;;;17.44;74.16;100232.63;6314998;22;44796;-83
2024/02/16 02:05:02;;;;;;;;;6.67;6.67;;;;;17.39;74.61;100243.47;6281468;22;45545;-84
2024/02/16 02:07:28;;;;;;;;;6.50;5.50;;;;;17.38;75.03;100244.41;6282288;22;45350;-83
2024/02/16 02:09:54;;;;;;;;;5.67;5.67;;;;;17.38;75.25;100242.59;6283369;22;45119;-83
2024/02/16 02:12:19;;;;;;;;;7.33;5.00;;;;;17.36;75.07;100243.53;6280858;22;45442;-83
2024/02/16 02:14:46;;;;;;;;;4.00;4.00;;;;;17.36;75.04;100240.84;6282670;22;44751;-83
2024/02/16 02:17:13;;;;;;;;;7.33;6.00;;;;;17.33;75.39;100236.44;6285034;22;45292;-84
2024/02/16 02:19:38;;;;;;;;;6.00;4.00;;;;;17.38;75.21;100237.22;6282292;22;47479;-83
2024/02/16 02:22:04;;;;;;;;;6.00;6.00;;;;;17.37;75.43;100253.34;6283628;22;44806;-84
2024/02/16 02:24:30;;;;;;;;;6.33;6.00;;;;;17.35;75.77;100250.72;6284338;22;45229;-84
2024/02/16 02:26:57;;;;;;;;;11.00;8.00;;;;;17.35;75.69;100242.66;6284127;22;45327;-83
2024/02/16 02:29:22;;;;;;;;;4.00;4.00;;;;;17.37;76.11;100247.97;6283913;22;46014;-83
2024/02/16 02:31:48;;;;;;;;;5.33;5.33;;;;;17.36;75.65;100244.41;6278797;22;45370;-83
2024/02/16 02:34:14;;;;;;;;;6.00;6.00;;;;;17.37;75.85;100256.97;6256918;22;45445;-83
2024/02/16 02:36:41;;;;;;;;;9.67;6.67;;;;;17.33;75.92;100254.34;6256183;22;44809;-83
2024/02/16 02:39:06;;;;;;;;;7.00;7.00;;;;;17.35;76.28;100253.41;6284565;22;45385;-83
2024/02/16 02:41:32;;;;;;;;;5.67;5.67;;;;;17.33;76.17;100257.94;6284039;22;44798;-82
2024/02/16 02:44:04;;;;;;;;;4.00;4.00;;;;;17.45;76.44;100264.84;6281724;22;45603;-83
2024/02/16 02:46:30;;;;;;;;;6.75;6.25;;;;;17.39;76.53;100265.88;6281143;22;45290;-83
2024/02/16 02:48:55;;;;;;;;;7.00;5.25;;;;;17.38;76.63;100264.09;6283905;22;44923;-83
2024/02/16 02:51:21;;;;;;;;;5.25;5.25;;;;;17.36;76.78;100271.28;6283514;22;50517;-83
2024/02/16 02:53:47;;;;;;;;;6.50;6.50;;;;;17.39;76.75;100268.56;6282224;22;45280;-83
2024/02/16 02:56:12;;;;;;;;;7.50;6.00;;;;;17.31;76.84;100264.25;6283442;22;45618;-83
2024/02/16 02:58:44;;;;;;;;;6.33;6.00;;;;;17.35;77.01;100266.84;6282950;22;44867;-83
2024/02/16 03:01:09;;;;;;;;;8.00;6.00;;;;;17.29;77.47;100280.44;6255751;22;45793;-83
2024/02/16 03:03:34;;;;;;;;;8.50;8.50;;;;;17.27;77.55;100290.31;6287635;22;44805;-83
2024/02/16 03:06:00;;;;;;;;;6.25;6.25;;;;;17.26;77.64;100282.28;6314759;22;45361;-83
2024/02/16 03:08:25;;;;;;;;;6.75;6.50;;;;;17.22;77.93;100281.47;6316398;22;45380;-83
2024/02/16 03:10:51;;;;;;;;;6.00;6.00;;;;;17.19;78.17;100285.09;6289349;22;44841;-83
2024/02/16 03:13:18;;;;;;;;;8.00;6.25;;;;;17.27;78.03;100297.47;6314032;22;45107;-83
2024/02/16 03:15:44;;;;;;;;;8.00;7.00;;;;;17.26;78.08;100301.97;6317135;22;45299;-83
2024/02/16 03:18:10;;;;;;;;;7.00;7.00;;;;;17.27;78.38;100298.38;6314133;22;45389;-83
2024/02/16 03:20:35;;;;;;;;;6.25;6.25;;;;;17.30;78.73;100308.19;6312457;22;45292;-83
2024/02/16 03:23:01;;;;;;;;;5.50;5.50;;;;;17.25;78.60;100305.59;6288602;22;44874;-83
2024/02/16 03:25:28;;;;;;;;;7.00;7.00;;;;;17.34;78.65;100313.44;6312954;22;45398;-83
2024/02/16 03:27:55;;;;;;;;;7.25;7.25;;;;;17.27;78.93;100295.69;6315521;22;45382;-83
2024/02/16 03:30:21;;;;;;;;;7.00;7.00;;;;;17.25;78.88;100294.84;6314965;22;44806;-83
2024/02/16 03:32:51;;;;;;;;;6.25;6.25;;;;;17.35;78.96;100291.06;6318428;22;45209;-84
2024/02/16 03:35:18;;;;;;;;;8.33;7.33;;;;;17.28;79.34;100297.47;6315956;22;45636;-83
2024/02/16 03:37:43;;;;;;;;;6.25;6.25;;;;;17.28;79.11;100302.81;6311577;22;45087;-83
2024/02/16 03:40:09;;;;;;;;;8.00;6.33;;;;;17.25;79.44;100297.53;6286272;22;45376;-83
2024/02/16 03:42:35;;;;;;;;;5.25;5.25;;;;;17.25;79.54;100300.22;6313900;22;45389;-83
2024/02/16 03:45:01;;;;;;;;;7.00;7.00;;;;;17.19;79.63;100293.16;6317238;22;45389;-83
2024/02/16 03:47:27;;;;;;;;;7.00;5.00;;;;;17.18;79.91;100290.50;6316097;22;46282;-83
2024/02/16 03:49:54;;;;;;;;;6.33;6.33;;;;;17.25;80.20;100293.94;6317946;22;44667;-83
2024/02/16 03:52:19;;;;;;;;;5.00;5.00;;;;;17.20;80.01;100291.34;6316102;22;45279;-83
2024/02/16 03:54:48;;;;;;;;;8.25;7.25;;;;;17.15;80.28;100290.59;6315388;22;44811;-83
2024/02/16 03:57:13;;;;;;;;;10.75;6.75;;;;;17.20;80.23;100308.34;6311443;22;45209;-82
2024/02/16 03:59:39;;;;;;;;;9.50;7.75;;;;;17.22;80.62;100311.03;6315521;22;44834;-83
2024/02/16 04:02:04;;;;;;;;;8.00;7.50;;;;;17.23;80.53;100311.91;6287787;22;45504;-83
2024/02/16 04:04:30;;;;;;;;;7.00;7.00;;;;;17.20;80.50;100313.72;6287636;22;44869;-83
2024/02/16 04:06:55;;;;;;;;;6.00;6.00;;;;;17.19;80.79;100324.53;6314738;22;47042;-83
2024/02/16 04:09:20;;;;;;;;;7.75;6.25;;;;;17.16;81.32;100327.28;6314627;22;54768;-82
2024/02/16 04:11:46;;;;;;;;;7.00;7.00;;;;;17.11;81.48;100324.69;6313994;22;44889;-83
2024/02/16 04:14:12;;;;;;;;;6.67;5.67;;;;;17.03;81.54;100313.19;6288959;22;45272;-83
2024/02/16 04:16:37;;;;;;;;;5.33;5.33;;;;;17.01;81.69;100325.78;6286607;22;46978;-83
2024/02/16 04:19:02;;;;;;;;;7.67;5.67;;;;;17.00;81.93;100322.19;6315371;22;45549;-83
2024/02/16 04:24:49;;;;;;;;;6.00;6.00;;;;;16.96;82.60;100347.31;6316724;22;44866;-83
2024/02/16 04:27:15;;;;;;;;;5.00;5.00;;;;;16.93;82.64;100338.47;6286659;22;47724;-83
2024/02/16 04:29:40;;;;;;;;;5.33;5.33;;;;;16.92;83.06;100348.31;6313850;22;45280;-83
2024/02/16 04:32:05;;;;;;;;;7.00;5.00;;;;;16.92;83.24;100350.97;6287759;22;45447;-83
2024/02/16 04:34:31;;;;;;;;;7.33;7.33;;;;;16.92;83.39;100355.47;6314248;22;44819;-83
2024/02/16 04:36:56;;;;;;;;;5.33;5.00;;;;;16.91;83.71;100365.34;6315597;22;45378;-83
2024/02/16 04:39:22;;;;;;;;;5.00;5.00;;;;;16.92;83.99;100369.78;6286393;22;44823;-82
2024/02/16 04:41:48;;;;;;;;;6.00;5.00;;;;;16.88;84.24;100372.56;6285451;22;45231;-83
2024/02/16 04:44:13;;;;;;;;;6.00;5.33;;;;;16.93;84.19;100385.00;6314370;22;45643;-83
2024/02/16 04:46:39;;;;;;;;;8.00;6.33;;;;;16.96;84.66;100394.81;6286971;22;46980;-84
2024/02/16 04:49:04;;;;;;;;;7.00;7.00;;;;;16.99;84.49;100408.19;6315798;22;45314;-83
2024/02/16 04:51:30;;;;;;;;;8.67;7.67;;;;;17.02;84.52;100415.31;6314695;22;45338;-84
2024/02/16 04:53:55;;;;;;;;;6.00;6.00;;;;;17.02;84.61;100420.69;6285864;22;44929;-83
2024/02/16 04:56:22;;;;;;;;;5.00;5.00;;;;;17.04;84.92;100418.84;6315480;22;45736;-84
2024/02/16 04:58:48;;;;;;;;;6.00;6.00;;;;;17.05;85.04;100429.59;6315953;22;45894;-84
2024/02/16 05:01:13;;;;;;;;;7.00;6.00;;;;;17.08;84.98;100423.25;6312985;22;45390;-83
2024/02/16 05:03:41;;;;;;;;;9.00;5.67;;;;;17.10;85.03;100429.50;6315294;22;44829;-83
2024/02/16 05:06:06;;;;;;;;;6.00;5.00;;;;;17.08;85.22;100432.19;6289358;22;47382;-84
2024/02/16 05:08:39;;;;;;;;;7.00;7.00;;;;;17.11;85.21;100431.28;6287696;22;45327;-84
2024/02/16 05:11:04;;;;;;;;;6.00;6.00;;;;;17.11;85.60;100436.66;6316574;22;45286;-84
2024/02/16 05:13:29;;;;;;;;;6.00;6.00;;;;;17.10;85.59;100432.19;6286930;22;45512;-84
2024/02/16 05:15:55;;;;;;;;;7.67;6.00;;;;;17.10;86.00;100451.88;6286833;22;47065;-83
2024/02/16 05:18:24;;;;;;;;;7.67;7.67;;;;;17.19;85.76;100442.78;6314572;22;45053;-84
2024/02/16 05:20:50;;;;;;;;;6.50;5.50;;;;;17.13;86.09;100441.06;6316187;22;44865;-84
2024/02/16 05:23:15;;;;;;;;;7.75;7.00;;;;;17.08;86.15;100439.38;6314528;22;45333;-84
2024/02/16 05:25:41;;;;;;;;;6.00;6.00;;;;;17.11;86.18;100437.53;6312631;22;47180;-83
2024/02/16 05:28:07;;;;;;;;;4.75;4.75;;;;;17.10;86.36;100442.94;6310679;22;45418;-83
2024/02/16 05:30:32;;;;;;;;;7.50;7.50;;;;;17.08;86.61;100455.50;6313366;22;45380;-84
2024/02/16 05:32:59;;;;;;;;;9.50;8.00;;;;;17.08;86.67;100456.38;6286857;22;45444;-84
2024/02/16 05:35:28;;;;;;;;;10.50;7.50;;;;;17.07;86.94;100457.31;6313572;22;45026;-83
2024/02/16 05:37:55;;;;;;;;;8.00;8.00;;;;;17.12;87.15;100455.41;6313181;22;45284;-84
2024/02/16 05:40:30;;;;;;;;;7.67;7.00;;;;;17.10;86.80;100448.31;6310856;22;44886;-83
2024/02/16 05:43:00;;;;;;;;;8.00;6.00;;;;;17.08;86.91;100442.06;6312947;22;45357;-84
2024/02/16 05:45:26;;;;;;;;;7.00;7.00;;;;;17.08;87.21;100466.25;6287578;22;47277;-83
2024/02/16 05:47:52;;;;;;;;;9.33;7.33;;;;;17.09;87.27;100470.72;6287398;22;44896;-83
2024/02/16 05:50:20;;;;;;;;;5.00;5.00;;;;;17.15;87.36;100474.19;6289053;22;45129;-82
2024/02/16 05:52:45;;;;;;;;;6.33;6.33;;;;;17.09;87.15;100470.72;6319280;22;45346;-83
2024/02/16 05:58:33;;;;;;;;;7.00;6.00;;;;;17.05;87.31;100477.03;6320453;22;45355;-83
2024/02/16 06:01:00;;;;;;;;;7.50;5.75;;;;;17.07;87.22;100489.56;6290457;22;44667;-84
2024/02/16 06:03:26;;;;;;;;;4.25;4.00;;;;;17.03;87.66;100494.97;6317348;22;44783;-83
2024/02/16 06:05:52;;;;;;;;;6.00;6.00;;;;;17.00;87.77;100486.06;6288488;22;47248;-83
2024/02/16 06:08:18;;;;;;;;;7.67;6.33;;;;;17.05;88.06;100501.22;6315723;22;45165;-83
2024/02/16 06:10:50;;;;;;;;;7.67;7.67;;;;;17.03;87.88;100506.63;6314544;22;45320;-83
2024/02/16 06:13:16;;;;;;;;;6.00;6.00;;;;;17.05;88.05;100506.59;6314314;22;45175;-83
2024/02/16 06:15:41;;;;;;;;;7.00;7.00;;;;;17.09;88.27;100508.34;6315850;22;45434;-82
2024/02/16 06:18:06;;;;;;;;;8.00;7.00;;;;;17.08;88.52;100507.44;6317141;22;45472;-83
2024/02/16 06:20:31;;;;;;;;;7.67;7.67;;;;;17.12;88.30;100509.16;6318074;22;45365;-83
2024/02/16 06:22:57;;;;;;;;;6.67;6.67;;;;;17.10;88.52;100520.84;6317250;22;44990;-81
2024/02/16 06:25:22;;;;;;;;;11.00;7.33;;;;;17.07;88.47;100513.72;6319459;22;45195;-83
2024/02/16 06:27:48;;;;;;;;;9.00;7.00;;;;;17.10;88.55;100532.47;6293153;22;45303;-83
2024/02/16 06:30:13;;;;;;;;;10.00;8.33;;;;;17.07;88.67;100526.28;6317210;22;45440;-83
2024/02/16 06:32:40;;;;;;;;;8.00;6.67;;;;;17.00;89.04;100531.72;6291916;22;44830;-83
2024/02/16 06:35:07;;;;;;;;;7.50;6.50;;;;;17.06;89.08;100546.00;6290092;22;47224;-83
2024/02/16 06:37:32;;;;;;;;;11.00;8.00;;;;;16.79;89.12;100503.38;6321127;22;45109;-82
2024/02/16 06:39:59;;;;;;;;;10.50;6.75;;;;;16.98;89.38;100530.00;6323055;22;44911;-82
2024/02/16 06:42:24;;;;;;;;;6.25;6.00;;;;;17.12;89.58;100551.28;6321871;22;45446;-83
2024/02/16 06:44:50;;;;;;;;;10.00;8.00;;;;;17.14;89.38;100561.06;6345623;22;47823;-83
2024/02/16 06:47:15;;;;;;;;;11.50;9.00;;;;;17.16;89.81;100564.63;6320686;22;44844;-81
2024/02/16 06:49:47;;;;;;;;;6.00;6.00;;;;;17.22;89.57;100558.25;6342102;22;45553;-83
2024/02/16 06:52:18;;;;;;;;;9.25;7.75;;;;;17.23;89.84;100568.13;6346247;22;45479;-84
2024/02/16 06:54:54;;;;;;;;;8.00;7.00;;;;;17.20;89.54;100562.78;6321794;22;48261;-84
2024/02/16 06:57:25;;;;;;;;;6.00;6.00;;;;;17.09;89.85;100551.34;6320155;22;45371;-83
2024/02/16 06:59:57;;;;;;;;;9.75;8.00;;;;;17.11;89.99;100577.25;6347202;22;45359;-84
2024/02/16 07:02:26;;;;;;;;;6.00;6.00;;;;;17.09;90.33;100562.09;6317568;22;45586;-84
2024/02/16 07:04:51;;;;;;;;;5.25;5.25;;;;;16.72;90.76;100530.34;6316070;22;45727;-84
2024/02/16 07:07:16;;;;;;;;;8.50;6.00;;;;;16.81;91.22;100570.53;6347216;22;45301;-82
2024/02/16 07:09:42;;;;;;;;;4.00;4.00;;;;;16.83;91.56;100587.53;6319732;22;45278;-84
2024/02/16 07:12:57;;;;;;;;;4.25;4.00;;;;;16.87;91.60;100589.25;6351692;22;45245;-83
2024/02/16 07:15:22;;;;;;;;;6.75;4.25;;;;;16.75;92.10;100586.72;6321329;22;47275;-83
2024/02/16 07:17:48;;;;;;;;;4.50;4.00;;;;;16.73;92.95;100591.22;6351739;22;45226;-82
2024/02/16 07:20:15;;;;;;;;;4.00;4.00;;;;;16.64;92.93;100591.31;6351840;22;45291;-83
2024/02/16 07:22:41;;;;;;;;;5.25;4.00;;;;;16.67;93.46;100605.59;6328031;22;45458;-83
2024/02/16 07:25:08;;;;;;;;;4.50;2.75;;;;;16.77;93.34;100611.75;6353791;22;45305;-82
2024/02/16 07:27:33;;;;;;;;;5.00;5.00;;;;;16.80;93.64;100620.66;6322552;22;45733;-82
2024/02/16 07:29:59;;;;;;;;;4.25;3.75;;;;;16.82;93.48;100623.34;6351087;22;45360;-82
2024/02/16 07:32:55;;;;;;;;;;;;;;;;;;;;;
2024/02/16 07:35:44;;;;;;;;;3.75;3.75;;;;;17.04;93.19;100642.72;6352322;22;74518;-84
2024/02/16 07:38:13;;;;;;;;;2.00;2.00;;;;;17.05;93.00;100647.22;6262306;22;45282;-83
2024/02/16 07:40:39;;;;;;;;;3.75;3.75;;;;;16.97;93.15;100644.63;6258945;22;44863;-84
2024/02/16 07:43:08;;;;;;;;;4.25;2.25;;;;;17.10;93.15;100649.81;6258497;22;44969;-84
2024/02/16 07:45:35;;;;;;;;;3.25;3.25;;;;;17.11;92.87;100657.00;6258721;22;45298;-83
2024/02/16 07:48:05;;;;;;;;;3.00;3.00;;;;;16.99;92.68;100642.81;6258124;22;45261;-83
2024/02/16 07:50:30;;;;;;;;;1.33;1.33;;;;;17.14;92.11;100662.31;6255403;22;45409;-83
2024/02/16 07:52:58;;;;;;;;;1.00;1.00;;;;;17.09;91.85;100650.75;6256111;22;45369;-83
2024/02/16 07:55:24;;;;;;;;;4.50;1.00;;;;;16.98;91.63;100630.25;6227517;22;47043;-82
2024/02/16 07:57:53;;;;;;;;;1.00;1.00;;;;;17.05;91.41;100641.84;6256328;22;45220;-83
2024/02/16 08:00:19;;;;;;;;;4.00;4.00;;;;;17.18;91.06;100664.03;6242583;22;44954;-83
2024/02/16 08:02:44;;;;;;;;;2.67;2.00;;;;;17.24;90.35;100669.31;6255227;22;44829;-83
2024/02/16 08:05:13;;;;;;;;;1.00;1.00;;;;;17.32;90.03;100671.91;6226543;22;46907;-82
2024/02/16 08:07:42;;;;;;;;;2.00;2.00;;;;;17.23;90.06;100667.56;6231482;22;45212;-82
2024/02/16 08:10:08;;;;;;;;;2.67;1.00;;;;;17.23;90.29;100672.94;6227006;22;44807;-83
2024/02/16 08:12:35;;;;;;;;;1.67;1.67;;;;;17.21;89.71;100677.44;6253324;22;45332;-83
2024/02/16 08:15:01;;;;;;;;;2.00;2.00;;;;;17.20;90.11;100675.66;6255954;22;45499;-82
2024/02/16 08:17:26;;;;;;;;;3.33;1.00;;;;;17.20;89.51;100681.91;6259628;22;45375;-81
2024/02/16 08:19:53;;;;;;;;;4.00;3.00;;;;;17.20;89.75;100672.97;6228309;22;45402;-81
2024/02/16 08:22:20;;;;;;;;;1.00;1.00;;;;;17.22;89.74;100689.06;6226841;22;45421;-83
2024/02/16 08:25:02;;;;;;;;;;;;;;;;;;;;;
2024/02/16 08:27:29;;;;;;;;;1.00;1.00;;;;;17.16;89.55;100696.31;6255251;22;71782;-83
2024/02/16 08:29:54;;;;;;;;;5.25;2.00;;;;;17.23;89.97;100701.59;6226220;22;45157;-83
2024/02/16 08:35:47;;;;;;;;;1.00;1.00;;;;;17.29;89.85;100702.41;6253113;22;44969;-82
2024/02/16 08:38:15;;;;;;;;;1.00;1.00;;;;;17.29;89.49;100710.47;6275914;22;46236;-82
2024/02/16 08:40:43;;;;;;;;;1.00;1.00;;;;;17.32;89.49;100718.47;6281202;22;45386;-81
2024/02/16 08:43:09;;;;;;;;;1.00;1.00;;;;;17.35;89.17;100726.53;6280218;22;45266;-82
2024/02/16 08:45:41;;;;;;;;;3.00;3.00;;;;;17.46;89.20;100726.34;6278146;22;46177;-80
2024/02/16 08:48:07;;;;;;;;;1.00;1.00;;;;;17.38;88.83;100731.84;6253904;22;45508;-80
2024/02/16 08:50:32;;;;;;;;;2.00;2.00;;;;;17.35;88.53;100737.28;6255370;22;45292;-80
2024/02/16 08:52:57;;;;;;;;;1.00;1.00;;;;;17.37;88.82;100739.91;6278440;22;45892;-80
2024/02/16 08:55:23;;;;;;;;;2.00;1.00;;;;;17.40;88.37;100748.84;6304450;22;47027;-79
2024/02/16 08:57:48;;;;;;;;;4.00;3.00;;;;;17.33;88.26;100754.31;6282437;22;45277;-81
2024/02/16 09:00:16;;;;;;;;;1.00;1.00;;;;;17.31;88.78;100754.34;6279150;22;45582;-82
2024/02/16 09:02:41;;;;;;;;;2.00;0.00;;;;;17.30;88.66;100754.38;6279044;22;45319;-82
2024/02/16 09:05:09;;;;;;;;;0.50;0.50;;;;;17.28;88.90;100753.50;6276390;22;47133;-81
2024/02/16 09:07:35;;;;;;;;;1.75;1.00;;;;;17.33;88.87;100760.59;6283463;22;44871;-81
2024/02/16 09:10:00;;;;;;;;;1.00;1.00;;;;;17.36;88.76;100771.28;6282317;22;45287;-81
2024/02/16 09:12:26;;;;;;;;;1.75;0.50;;;;;17.39;88.66;100776.66;6282782;22;45393;-81
2024/02/16 09:14:52;;;;;;;;;3.00;1.25;;;;;17.42;88.74;100766.75;6292097;22;45528;-81
2024/02/16 09:17:20;;;;;;;;;1.00;1.00;;;;;17.42;88.81;100773.03;6279922;22;45652;-81
2024/02/16 09:19:45;;;;;;;;;1.00;1.00;;;;;17.45;89.25;100783.75;6281855;22;45256;-82
2024/02/16 09:25:33;;;;;;;;;2.00;2.00;;;;;17.50;89.38;100794.44;6283871;22;44989;-81
2024/02/16 09:27:58;;;;;;;;;1.00;1.00;;;;;17.49;89.88;100798.00;6285339;22;45337;-82
2024/02/16 09:30:23;;;;;;;;;0.25;0.25;;;;;17.47;89.80;100794.44;6287365;22;45244;-81
2024/02/16 09:32:49;;;;;;;;;0.50;0.00;;;;;17.48;90.18;100807.88;6280393;22;44918;-80
2024/02/16 09:35:14;;;;;;;;;0.00;0.00;;;;;17.49;90.46;100814.16;6281762;22;47074;-81
2024/02/16 09:38:05;;;;;;;;;2.00;0.67;;;;;17.62;90.66;100815.78;6285053;22;44704;-81
2024/02/16 09:40:30;;;;;;;;;1.33;1.33;;;;;17.48;91.45;100820.44;6229105;22;44906;-81
2024/02/16 09:42:56;;;;;;;;;1.67;1.00;;;;;17.47;92.04;100816.88;6246828;22;45426;-80
2024/02/16 09:45:29;;;;;;;;;1.00;1.00;;;;;17.52;93.53;100824.88;6256504;22;45854;-82
2024/02/16 09:47:55;;;;;;;;;5.00;5.00;;;;;17.47;93.93;100832.09;6256305;22;45385;-82
2024/02/16 09:50:21;;;;;;;;;2.67;1.00;;;;;17.47;94.50;100838.38;6302854;22;44847;-81
2024/02/16 09:52:49;;;;;;;;;4.00;2.67;;;;;17.49;95.35;100847.31;6251333;22;44811;-82
2024/02/16 09:55:17;;;;;;;;;1.33;1.33;;;;;17.46;95.88;100857.22;6250029;22;45708;-83
2024/02/16 09:57:43;;;;;;;;;2.00;2.00;;;;;17.39;95.74;100856.38;6300671;22;45347;-81
2024/02/16 10:00:09;;;;;;;;;2.33;2.33;;;;;17.27;96.50;100862.81;6251383;22;45437;-81
2024/02/16 10:02:44;;;;;;;;;3.67;2.33;;;;;17.22;97.53;100872.72;6251595;22;45382;-81
2024/02/16 10:05:17;;;;;;;;;2.00;2.00;;;;;17.04;100.00;100884.56;6271430;22;48303;-81
2024/02/16 10:07:43;;;;;;;;;2.00;2.00;;;;;16.66;100.00;100879.50;6247043;22;45467;-81
2024/02/16 10:10:37;;;;;;;;;2.00;2.00;;;;;16.72;100.00;100904.50;6277619;22;45361;-86
2024/02/16 10:13:08;;;;;;;;;2.33;2.33;;;;;16.55;100.00;100909.16;6262315;22;45368;-85
2024/02/16 10:15:34;;;;;;;;;5.00;4.00;;;;;16.25;100.00;100910.25;6264191;22;45338;-85
2024/02/16 10:18:01;;;;;;;;;2.00;2.00;;;;;16.16;100.00;100922.84;6262889;22;44968;-85
2024/02/16 10:20:28;;;;;;;;;6.33;4.67;;;;;16.04;100.00;100932.72;6259467;22;44895;-83
2024/02/16 10:23:07;;;;;;;;;4.33;4.33;;;;;16.04;100.00;100936.31;6312360;22;44919;-84
2024/02/16 10:25:37;;;;;;;;;5.67;5.67;;;;;15.94;100.00;100937.28;6266686;22;45152;-84
2024/02/16 10:28:10;;;;;;;;;7.00;7.00;;;;;15.95;100.00;100947.97;6292961;22;44785;-82
2024/02/16 10:30:59;;;;;;;;;7.00;7.00;;;;;15.88;100.00;100953.41;6263698;22;44792;-86
2024/02/16 10:33:29;;;;;;;;;13.67;9.00;;;;;15.80;100.00;100957.00;6258026;22;44795;-86
2024/02/16 10:36:02;;;;;;;;;16.67;14.00;;;;;15.75;100.00;100961.50;6263110;22;46051;-86
2024/02/16 10:38:29;;;;;;;;;13.67;12.67;;;;;15.64;100.00;100963.28;6317368;22;45157;-85
2024/02/16 10:40:57;;;;;;;;;14.00;13.00;;;;;15.60;100.00;100973.13;6301132;22;44831;-84
2024/02/16 10:43:23;;;;;;;;;13.67;13.00;;;;;15.45;100.00;100980.28;6300169;22;44728;-85
2024/02/16 10:45:52;;;;;;;;;22.00;17.00;;;;;15.38;100.00;100987.47;6326824;22;45664;-83
2024/02/16 10:48:18;;;;;;;;;20.67;18.00;;;;;15.32;100.00;100988.38;6298717;22;44823;-81
2024/02/16 10:50:45;;;;;;;;;16.00;15.67;;;;;15.39;100.00;100998.19;6298208;22;44797;-84
2024/02/16 10:53:25;;;;;;;;;15.33;15.00;;;;;15.43;100.00;101008.88;6301505;22;45481;-85
2024/02/16 10:55:51;;;;;;;;;15.67;15.00;;;;;15.38;100.00;101017.81;6327759;22;45175;-85
2024/02/16 10:58:20;;;;;;;;;18.33;17.33;;;;;15.45;100.00;101020.50;6325500;22;44864;-84
2024/02/16 11:00:52;;;;;;;;;19.67;17.67;;;;;15.45;100.00;101026.78;6323818;22;44703;-85
2024/02/16 11:03:25;;;;;;;;;19.00;18.67;;;;;15.51;100.00;101031.22;6322208;22;45077;-85
2024/02/16 11:06:01;;;;;;;;;19.33;18.33;;;;;15.53;100.00;101032.09;6327120;22;45268;-84
2024/02/16 11:08:40;;;;;;;;;15.00;15.00;;;;;15.56;100.00;101021.38;6294366;22;45263;-85
2024/02/16 11:11:06;;;;;;;;;14.33;13.67;;;;;15.56;100.00;101022.28;6295589;22;44659;-85
2024/02/16 11:13:39;;;;;;;;;21.00;21.00;;;;;15.52;100.00;100992.81;6319225;22;45465;-84
2024/02/16 11:16:13;;;;;;;;;20.00;17.00;;;;;15.64;100.00;100999.94;6290861;22;47133;-84
2024/02/16 11:18:44;;;;;;;;;17.00;17.00;;;;;15.70;100.00;101014.19;6295857;22;44883;-83
2024/02/16 11:21:16;;;;;;;;;17.00;13.67;;;;;15.88;100.00;101039.22;6294595;22;45354;-84
2024/02/16 11:23:42;;;;;;;;;15.00;14.33;;;;;15.60;100.00;101015.13;6296521;22;45059;-83
2024/02/16 11:26:14;;;;;;;;;18.67;16.67;;;;;15.80;100.00;101040.13;6297869;22;47065;-85
2024/02/16 11:28:45;;;;;;;;;20.33;18.33;;;;;15.80;100.00;101052.66;6297150;22;44931;-82
2024/02/16 11:31:11;;;;;;;;;17.00;17.00;;;;;15.69;100.00;101051.75;6322575;22;44837;-83
2024/02/16 11:33:44;;;;;;;;;24.00;23.00;;;;;15.70;100.00;101078.56;6320574;22;45188;-84
2024/02/16 11:39:19;;;;;;;;;19.67;17.00;;;;;15.72;100.00;101075.88;6309372;22;44885;-84
2024/02/16 11:42:10;;;;;;;;;18.33;16.33;;;;;15.70;100.00;101048.19;6285562;22;45251;-83